Rechercher aéroport 
image banner adimage banner ad
image banner ad

SBSM - Santa Maria Airport

Situé à Santa Maria, Brazil

ICAO - SBSM, IATA - RIA

Données fournies par Airmate  

Information générale

Coordonnées: S29°42'39" W53°41'32"
Élévation : 288 feet MSL.
Variation magnétique : -15° East
Voir autres Aéroports à Rio Grande do Sul

Données opérationnelles

Accessible au public
Heure actuelle UTC:
Heure actuelle locale:
Météo
METAR: SBSM 271700Z VRB05KT 9999 TS FEW006 BKN030 FEW040CB BKN070 21/20 Q1006
TAF: TAF SBSM 270900Z 2712/2724 11004KT 8000 SCT010 TX27/2716Z TN17/2723Z TEMPO 2712/2716 VRB03KT 4000 BR SCT002 BECMG 2720/2722 9999 SCT020 RMK PEA
Voir NOTAMs / SUP AIP / TFR affectant cet aéroport [VIEW]
Fréquences de communication: [VIEW]

Pistes:

Identifiant RWYQFULongueur (ft)Largeur (ft)SurfaceLDA (ft)
20494498ASP
118839148CON
298839148CON
02459398UNK

Coordonnées de l'aéroport

Adresse: Santa Maria Brazil

Vue satellite de SBSM